Time;durP1;ratioP1;P1;durP2;ratioP2;P2;SDS_P1;SDS_P2;PMS_P1;PMS_P2;Temp;Humidity;BMP_temperature;BMP_pressure;BME280_temperature;BME280_humidity;BME280_pressure;Samples;Min_cycle;Max_cycle;Signal;HPM_P1;HPM_P2
2022/09/15 00:01:25;;;;;;;32.88;21.35;;;15.10;99.90;;;;;;5153843;27;20212;-52
2022/09/15 00:03:51;;;;;;;33.22;21.90;;;15.00;99.90;;;;;;5154067;27;20278;-52
2022/09/15 00:06:17;;;;;;;28.48;19.20;;;15.00;99.90;;;;;;5154107;27;20163;-52
2022/09/15 00:08:43;;;;;;;26.60;18.45;;;15.00;99.90;;;;;;5154006;27;20166;-52
2022/09/15 00:11:24;;;;;;;29.83;18.77;;;15.00;99.90;;;;;;5153932;27;20168;-52
2022/09/15 00:13:51;;;;;;;24.88;16.75;;;14.90;99.90;;;;;;5153656;27;20173;-52
2022/09/15 00:16:19;;;;;;;30.25;15.13;;;15.00;99.90;;;;;;5154132;27;20163;-53
2022/09/15 00:18:45;;;;;;;21.88;16.23;;;15.00;99.90;;;;;;5154095;27;20171;-53
2022/09/15 00:21:14;;;;;;;22.17;15.32;;;15.00;99.90;;;;;;5154010;27;20175;-53
2022/09/15 00:23:40;;;;;;;25.95;15.88;;;14.90;99.90;;;;;;5154110;27;20250;-53
2022/09/15 00:26:08;;;;;;;21.63;14.63;;;14.90;99.90;;;;;;5153748;27;20170;-53
2022/09/15 00:28:34;;;;;;;19.50;14.55;;;14.80;99.90;;;;;;5153769;27;20163;-53
2022/09/15 00:31:05;;;;;;;24.95;15.35;;;14.80;99.90;;;;;;5153911;27;20174;-53
2022/09/15 00:33:31;;;;;;;22.05;13.80;;;14.80;99.90;;;;;;5153633;27;20170;-53
2022/09/15 00:36:01;;;;;;;20.65;13.70;;;14.80;99.90;;;;;;5153583;27;20167;-53
2022/09/15 00:38:27;;;;;;;20.38;13.55;;;14.80;99.90;;;;;;5153161;27;20238;-53
2022/09/15 00:40:56;;;;;;;24.17;14.52;;;14.70;99.90;;;;;;5153504;27;20197;-53
2022/09/15 00:43:41;;;;;;;19.27;13.40;;;14.70;99.90;;;;;;5152146;27;20191;-53
2022/09/15 00:46:07;;;;;;;25.10;14.63;;;14.70;99.90;;;;;;5153470;27;20166;-53
2022/09/15 00:48:34;;;;;;;26.13;14.93;;;14.70;99.90;;;;;;5152222;27;20511;-53
2022/09/15 00:51:03;;;;;;;24.67;15.57;;;14.60;99.90;;;;;;5153392;27;20159;-53
2022/09/15 00:53:31;;;;;;;23.33;15.55;;;14.60;99.90;;;;;;5151947;27;20238;-53
2022/09/15 00:55:58;;;;;;;24.60;14.63;;;14.60;99.90;;;;;;5153363;27;20219;-53
2022/09/15 00:58:46;;;;;;;21.88;14.98;;;14.50;99.90;;;;;;5153395;27;20159;-53
2022/09/15 01:01:13;;;;;;;23.88;15.82;;;14.60;99.90;;;;;;5153473;27;20168;-52
2022/09/15 01:03:39;;;;;;;23.48;16.30;;;14.60;99.90;;;;;;5153636;27;20297;-52
2022/09/15 01:06:39;;;;;;;24.35;16.23;;;14.60;99.90;;;;;;5153003;27;20187;-52
2022/09/15 01:09:22;;;;;;;23.45;15.57;;;14.60;99.90;;;;;;5152842;27;20371;-52
2022/09/15 01:11:48;;;;;;;25.10;15.73;;;14.50;99.90;;;;;;5152998;27;20156;-53
2022/09/15 01:14:14;;;;;;;25.15;16.60;;;14.50;99.90;;;;;;5153241;27;20667;-52
2022/09/15 01:16:52;;;;;;;26.00;15.70;;;14.50;99.90;;;;;;5153574;27;20202;-52
2022/09/15 01:19:31;;;;;;;27.65;17.30;;;14.60;99.90;;;;;;5153176;27;20190;-52
2022/09/15 01:22:02;;;;;;;26.50;15.02;;;14.60;99.90;;;;;;5151840;27;20202;-53
2022/09/15 01:25:02;;;;;;;26.58;16.42;;;14.60;99.90;;;;;;5151701;27;20215;-53
2022/09/15 01:27:39;;;;;;;23.55;15.20;;;11.00;99.90;;;;;;5156992;27;20175;-53
2022/09/15 01:30:11;;;;;;;23.95;16.00;;;14.60;99.90;;;;;;5157060;27;20631;-53
2022/09/15 01:33:03;;;;;;;22.63;15.95;;;14.70;99.90;;;;;;5157321;27;20255;-53
2022/09/15 01:35:39;;;;;;;24.25;14.85;;;14.70;99.90;;;;;;5114953;27;20215;-53
2022/09/15 01:38:26;;;;;;;33.58;17.60;;;14.70;99.90;;;;;;5156939;27;20247;-53
2022/09/15 01:40:58;;;;;;;25.42;15.10;;;14.70;99.90;;;;;;5156657;27;20155;-53
2022/09/15 01:43:25;;;;;;;23.58;15.43;;;14.70;99.90;;;;;;5156850;27;20188;-52
2022/09/15 01:45:51;;;;;;;25.75;15.45;;;14.60;99.90;;;;;;5156956;27;20251;-53
2022/09/15 01:48:21;;;;;;;25.95;15.68;;;14.60;99.90;;;;;;5156880;27;20633;-53
2022/09/15 01:50:51;;;;;;;24.55;16.10;;;14.60;99.90;;;;;;5156791;27;20168;-53
2022/09/15 01:53:19;;;;;;;26.17;15.63;;;14.60;99.90;;;;;;5156537;27;20564;-53
2022/09/15 01:55:53;;;;;;;27.10;15.38;;;14.50;99.90;;;;;;5156659;27;20170;-53
2022/09/15 01:58:19;;;;;;;31.67;16.98;;;14.40;99.90;;;;;;5156909;27;20170;-53
2022/09/15 02:00:57;;;;;;;26.35;15.98;;;14.50;99.90;;;;;;5156552;27;20654;-52
2022/09/15 02:03:55;;;;;;;23.52;16.20;;;14.40;99.90;;;;;;5156735;27;20545;-53
2022/09/15 02:06:34;;;;;;;25.73;16.40;;;14.40;99.90;;;;;;5155106;27;20581;-53
2022/09/15 02:09:16;;;;;;;21.73;15.55;;;14.40;99.90;;;;;;5156585;27;20245;-52
2022/09/15 02:12:00;;;;;;;27.88;15.70;;;14.40;99.90;;;;;;5156494;27;20166;-52
2022/09/15 02:14:51;;;;;;;24.80;15.73;;;14.30;99.90;;;;;;5156094;27;20167;-52
2022/09/15 02:17:19;;;;;;;30.55;16.38;;;14.20;99.90;;;;;;5156217;27;20619;-52
2022/09/15 02:19:49;;;;;;;35.00;16.65;;;14.20;99.90;;;;;;5156154;27;20159;-52
2022/09/15 02:22:26;;;;;;;31.85;17.02;;;14.20;99.90;;;;;;5156075;27;20175;-52
2022/09/15 02:25:09;;;;;;;26.90;15.70;;;14.20;99.90;;;;;;5155918;27;20572;-52
2022/09/15 02:27:39;;;;;;;25.80;16.35;;;14.20;99.90;;;;;;5156052;27;20159;-52
2022/09/15 02:30:10;;;;;;;24.88;15.90;;;14.20;99.90;;;;;;5156071;27;20183;-52
2022/09/15 02:32:40;;;;;;;29.05;16.23;;;14.10;99.90;;;;;;5155842;27;20650;-52
2022/09/15 02:35:08;;;;;;;27.75;15.68;;;14.20;99.90;;;;;;5156090;27;20167;-52
2022/09/15 02:37:36;;;;;;;28.67;15.00;;;14.10;99.90;;;;;;5155461;27;20242;-53
2022/09/15 02:40:02;;;;;;;26.63;15.30;;;14.20;99.90;;;;;;5155798;27;21023;-52
2022/09/15 02:42:30;;;;;;;23.45;15.25;;;14.10;99.90;;;;;;5155692;27;20174;-52
2022/09/15 02:44:57;;;;;;;27.10;16.65;;;14.00;99.90;;;;;;5155625;27;20207;-52
2022/09/15 02:47:24;;;;;;;31.23;16.75;;;14.00;99.90;;;;;;5155631;27;20628;-52
2022/09/15 02:49:49;;;;;;;28.75;15.77;;;14.00;99.90;;;;;;5155680;27;20174;-52
2022/09/15 02:52:15;;;;;;;29.58;16.33;;;14.00;99.90;;;;;;5155698;27;20544;-52
2022/09/15 02:54:40;;;;;;;29.75;16.85;;;13.90;99.90;;;;;;5155381;27;20211;-52
2022/09/15 02:57:06;;;;;;;31.75;16.02;;;13.90;99.90;;;;;;5155796;27;20171;-53
2022/09/15 03:02:19;;;;;;;27.85;16.80;;;13.80;99.90;;;;;;5154978;27;20224;-52
2022/09/15 03:04:48;;;;;;;28.10;18.38;;;13.80;99.90;;;;;;5155245;27;20754;-53
2022/09/15 03:07:14;;;;;;;35.05;20.95;;;13.70;99.90;;;;;;5155447;27;20632;-53
2022/09/15 03:09:40;;;;;;;37.95;21.70;;;13.70;99.90;;;;;;5155464;27;20194;-52
2022/09/15 03:12:06;;;;;;;37.35;20.75;;;13.70;99.90;;;;;;5155434;27;20527;-53
2022/09/15 03:14:32;;;;;;;73.00;21.13;;;13.60;99.90;;;;;;5155067;27;20167;-53
2022/09/15 03:16:58;;;;;;;72.05;22.77;;;13.50;99.90;;;;;;5155314;27;20167;-53
2022/09/15 03:19:25;;;;;;;69.50;22.25;;;13.50;99.90;;;;;;5154957;27;20191;-53
2022/09/15 03:21:50;;;;;;;102.40;25.95;;;13.50;99.90;;;;;;5155006;27;20164;-53
2022/09/15 03:24:18;;;;;;;92.57;22.27;;;13.50;99.90;;;;;;5155155;27;20662;-52
2022/09/15 03:26:44;;;;;;;98.45;23.92;;;13.50;99.90;;;;;;5154750;27;20172;-53
2022/09/15 03:29:10;;;;;;;85.85;24.23;;;13.40;99.90;;;;;;5155175;27;20168;-53
2022/09/15 03:31:36;;;;;;;61.35;22.27;;;13.50;99.90;;;;;;5155063;27;20216;-53
2022/09/15 03:34:01;;;;;;;44.90;22.27;;;13.40;99.90;;;;;;5153365;27;20242;-53
2022/09/15 03:36:27;;;;;;;44.72;24.50;;;13.50;99.90;;;;;;5152949;27;20605;-53
2022/09/15 03:38:56;;;;;;;44.50;23.92;;;13.50;99.90;;;;;;5154222;27;20192;-53
2022/09/15 03:41:23;;;;;;;52.35;24.08;;;13.50;99.90;;;;;;5154762;27;20202;-52
2022/09/15 03:43:48;;;;;;;46.13;23.75;;;13.60;99.90;;;;;;5154368;27;20217;-53
2022/09/15 03:46:14;;;;;;;41.25;24.00;;;13.60;99.90;;;;;;5154406;27;20155;-53
2022/09/15 03:48:39;;;;;;;42.25;22.95;;;13.50;99.90;;;;;;5153978;27;20171;-52
2022/09/15 03:51:07;;;;;;;34.75;19.70;;;13.60;99.90;;;;;;5154614;27;20198;-52
2022/09/15 03:53:34;;;;;;;38.95;21.90;;;13.50;99.90;;;;;;5154172;27;20211;-52
2022/09/15 03:56:16;;;;;;;42.03;21.45;;;13.50;99.90;;;;;;5154266;27;20655;-53
2022/09/15 03:58:41;;;;;;;40.42;21.42;;;13.60;99.90;;;;;;5154381;27;20171;-53
2022/09/15 04:01:08;;;;;;;35.83;22.40;;;13.60;99.90;;;;;;5154662;27;20250;-53
2022/09/15 04:03:34;;;;;;;38.97;22.85;;;13.60;99.90;;;;;;5154080;27;20723;-53
2022/09/15 04:05:59;;;;;;;40.78;21.10;;;13.70;99.90;;;;;;5154136;27;20254;-53
2022/09/15 04:08:25;;;;;;;41.03;21.60;;;13.70;99.90;;;;;;5153740;27;20167;-53
2022/09/15 04:10:50;;;;;;;36.20;20.55;;;13.70;99.90;;;;;;5154214;27;20171;-53
2022/09/15 04:13:16;;;;;;;34.83;20.77;;;13.80;99.90;;;;;;5154034;27;20163;-54
2022/09/15 04:15:43;;;;;;;41.15;21.30;;;13.80;99.90;;;;;;5153941;27;20167;-53
2022/09/15 04:18:09;;;;;;;32.58;19.58;;;13.80;99.90;;;;;;5154509;27;20561;-53
2022/09/15 04:20:38;;;;;;;34.78;20.55;;;13.80;99.90;;;;;;5153850;27;20167;-53
2022/09/15 04:23:04;;;;;;;30.77;19.02;;;13.80;99.90;;;;;;5153731;27;20167;-53
2022/09/15 04:25:29;;;;;;;33.60;19.38;;;13.80;99.90;;;;;;5154204;27;20615;-53
2022/09/15 04:27:56;;;;;;;29.77;17.48;;;13.80;99.90;;;;;;5153682;27;20642;-53
2022/09/15 04:30:21;;;;;;;28.63;18.65;;;13.70;99.90;;;;;;5153745;27;20163;-53
2022/09/15 04:32:48;;;;;;;29.63;18.63;;;13.80;99.90;;;;;;5152280;27;20178;-53
2022/09/15 04:35:14;;;;;;;29.63;17.95;;;13.90;99.90;;;;;;5153846;27;20216;-53
2022/09/15 04:37:40;;;;;;;32.38;17.90;;;14.00;99.90;;;;;;5154010;27;20155;-53
2022/09/15 04:40:07;;;;;;;33.58;18.83;;;16.40;99.90;;;;;;5153271;27;20683;-53
2022/09/15 04:42:33;;;;;;;30.50;17.02;;;13.90;99.90;;;;;;5153789;27;20165;-53
2022/09/15 04:44:58;;;;;;;32.05;16.83;;;13.90;99.90;;;;;;5153377;27;20199;-53
2022/09/15 04:47:24;;;;;;;26.90;16.05;;;13.90;99.90;;;;;;5152119;27;20178;-53
2022/09/15 04:49:50;;;;;;;26.65;16.33;;;13.90;99.90;;;;;;5153410;27;20168;-53
2022/09/15 04:52:15;;;;;;;25.60;16.10;;;13.90;99.90;;;;;;5153337;27;20165;-53
2022/09/15 04:54:41;;;;;;;27.30;16.13;;;13.90;99.90;;;;;;5153172;27;20210;-53
2022/09/15 04:57:08;;;;;;;23.33;15.27;;;13.80;99.90;;;;;;5153606;27;20169;-52
2022/09/15 04:59:34;;;;;;;27.10;17.42;;;13.80;99.90;;;;;;5154403;27;20168;-53
2022/09/15 05:01:59;;;;;;;25.15;15.73;;;13.80;99.90;;;;;;5157556;27;20497;-53
2022/09/15 05:04:25;;;;;;;25.70;15.70;;;13.80;99.90;;;;;;5157493;27;20275;-53
2022/09/15 05:06:50;;;;;;;24.75;17.02;;;13.80;99.90;;;;;;5157497;27;20212;-53
2022/09/15 05:09:16;;;;;;;32.35;16.38;;;13.80;99.90;;;;;;5157710;27;20258;-53
2022/09/15 05:11:41;;;;;;;26.77;17.60;;;13.90;99.90;;;;;;5157499;27;20612;-53
2022/09/15 05:14:08;;;;;;;28.38;17.58;;;13.90;99.90;;;;;;5157757;27;20175;-53
2022/09/15 05:16:34;;;;;;;31.05;16.65;;;13.80;99.90;;;;;;5157405;27;20215;-53
2022/09/15 05:19:01;;;;;;;23.02;15.68;;;13.90;99.90;;;;;;5157339;27;20238;-53
2022/09/15 05:21:27;;;;;;;30.20;17.65;;;13.90;99.90;;;;;;5157267;27;20163;-53
2022/09/15 05:23:53;;;;;;;27.25;17.45;;;13.90;99.90;;;;;;5157484;27;20247;-53
2022/09/15 05:26:21;;;;;;;25.70;17.02;;;13.90;99.90;;;;;;5157472;27;20550;-53
2022/09/15 05:28:47;;;;;;;27.27;16.77;;;14.00;99.90;;;;;;5157214;27;20160;-53
2022/09/15 05:31:16;;;;;;;25.58;15.75;;;14.00;99.90;;;;;;5157095;27;20175;-53
2022/09/15 05:33:43;;;;;;;25.08;14.45;;;14.00;99.90;;;;;;5155866;27;20179;-53
2022/09/15 05:36:08;;;;;;;28.55;16.55;;;13.90;99.90;;;;;;5157496;27;20199;-53
2022/09/15 05:38:34;;;;;;;23.52;16.13;;;13.90;99.90;;;;;;5156959;27;20624;-53
2022/09/15 05:41:06;;;;;;;23.05;15.60;;;13.90;99.90;;;;;;5156772;27;20152;-53
2022/09/15 05:43:33;;;;;;;23.20;15.95;;;13.90;99.90;;;;;;5156811;27;20214;-53
2022/09/15 05:45:59;;;;;;;24.67;16.05;;;13.90;99.90;;;;;;5155727;27;20523;-53
2022/09/15 05:48:24;;;;;;;22.70;16.08;;;14.00;99.90;;;;;;5156581;27;20179;-54
2022/09/15 05:50:52;;;;;;;26.42;15.88;;;14.00;99.90;;;;;;5156566;27;20525;-53
2022/09/15 05:53:18;;;;;;;24.58;15.43;;;14.10;99.90;;;;;;5156583;27;20215;-53
2022/09/15 05:55:44;;;;;;;23.20;16.08;;;14.10;99.90;;;;;;5155877;27;20537;-53
2022/09/15 05:58:10;;;;;;;28.92;15.60;;;14.10;99.90;;;;;;5140439;27;20168;-53
2022/09/15 06:00:35;;;;;;;23.70;15.38;;;14.20;99.90;;;;;;5134723;27;20168;-53
2022/09/15 06:03:01;;;;;;;24.27;16.05;;;14.20;99.90;;;;;;5134659;27;20540;-53
2022/09/15 06:05:27;;;;;;;21.98;14.85;;;14.30;99.90;;;;;;5134441;27;20750;-54
2022/09/15 06:07:53;;;;;;;23.77;14.18;;;14.30;99.90;;;;;;5134505;27;20156;-54
2022/09/15 06:10:21;;;;;;;21.65;13.93;;;14.40;99.90;;;;;;5134427;27;20175;-54
2022/09/15 06:12:47;;;;;;;19.27;12.77;;;14.40;99.90;;;;;;5133876;27;20178;-54
2022/09/15 06:15:13;;;;;;;24.02;13.20;;;14.40;99.90;;;;;;5134597;27;20222;-53
2022/09/15 06:17:39;;;;;;;21.70;13.23;;;14.50;99.90;;;;;;5134593;27;20199;-52
2022/09/15 06:20:06;;;;;;;19.42;13.23;;;14.50;99.90;;;;;;5134927;27;20171;-51
2022/09/15 06:22:32;;;;;;;23.73;13.57;;;14.50;99.90;;;;;;5134262;27;20160;-52
2022/09/15 06:24:58;;;;;;;25.58;13.85;;;14.60;99.90;;;;;;5134087;27;20211;-53
2022/09/15 06:27:24;;;;;;;21.95;14.05;;;14.70;99.90;;;;;;5133979;27;20532;-63
2022/09/15 06:29:49;;;;;;;19.77;13.15;;;14.70;99.90;;;;;;5133987;27;20171;-52
2022/09/15 06:32:15;;;;;;;20.63;12.98;;;14.70;99.90;;;;;;5133943;27;20624;-52
2022/09/15 06:34:40;;;;;;;21.95;13.68;;;14.80;99.90;;;;;;5133725;27;20243;-52
2022/09/15 06:37:07;;;;;;;19.25;13.77;;;14.90;99.90;;;;;;5134226;27;20164;-52
2022/09/15 06:39:32;;;;;;;19.70;12.88;;;14.90;99.90;;;;;;5134043;27;20200;-52
2022/09/15 06:41:58;;;;;;;22.75;13.90;;;15.00;99.90;;;;;;5133835;27;20597;-52
2022/09/15 06:44:23;;;;;;;19.50;13.40;;;15.00;99.90;;;;;;5133803;27;20290;-53
2022/09/15 06:46:49;;;;;;;23.33;12.35;;;15.00;99.90;;;;;;5133767;27;20520;-52
2022/09/15 06:49:15;;;;;;;21.20;12.85;;;15.10;99.90;;;;;;5133707;27;20539;-52
2022/09/15 06:51:41;;;;;;;20.27;13.45;;;15.10;99.90;;;;;;5133846;27;20206;-52
2022/09/15 06:54:06;;;;;;;18.88;13.13;;;15.20;99.90;;;;;;5133593;27;20692;-53
2022/09/15 06:56:32;;;;;;;23.90;13.48;;;15.10;99.90;;;;;;5133574;27;20167;-53
2022/09/15 06:58:58;;;;;;;22.60;13.23;;;15.10;99.90;;;;;;5133466;27;20186;-53
2022/09/15 07:01:29;;;;;;;22.55;13.15;;;15.20;99.90;;;;;;5133317;27;20210;-53
2022/09/15 07:03:55;;;;;;;25.05;14.80;;;15.10;99.90;;;;;;5133264;27;20235;-52
2022/09/15 07:06:21;;;;;;;19.13;13.20;;;15.10;99.90;;;;;;5133698;27;20512;-52
2022/09/15 07:08:48;;;;;;;21.58;13.07;;;15.10;99.90;;;;;;5133350;27;20172;-53
2022/09/15 07:11:15;;;;;;;23.40;13.73;;;15.20;99.90;;;;;;5133335;27;20574;-53
2022/09/15 07:13:41;;;;;;;18.13;13.70;;;15.20;99.90;;;;;;5133124;27;20179;-52
2022/09/15 07:16:08;;;;;;;20.15;13.32;;;15.20;99.90;;;;;;5133717;27;20170;-52
2022/09/15 07:18:34;;;;;;;20.20;13.50;;;15.20;99.90;;;;;;5133077;27;20195;-53
2022/09/15 07:21:02;;;;;;;21.25;12.73;;;15.30;99.90;;;;;;5132937;27;20196;-53
2022/09/15 07:23:28;;;;;;;20.17;13.35;;;15.30;99.90;;;;;;5131765;27;20191;-53
2022/09/15 07:26:13;;;;;;;25.38;14.00;;;15.40;99.90;;;;;;5132960;27;20259;-53
2022/09/15 07:28:42;;;;;;;23.05;13.18;;;15.50;99.90;;;;;;5133617;27;20511;-53
2022/09/15 07:31:11;;;;;;;22.75;13.02;;;15.40;99.90;;;;;;5133174;27;20184;-53
2022/09/15 07:33:37;;;;;;;25.35;13.35;;;15.40;99.90;;;;;;5133085;27;20194;-52
2022/09/15 07:36:04;;;;;;;20.45;12.43;;;15.50;99.90;;;;;;5132726;27;20619;-53
2022/09/15 07:38:30;;;;;;;16.65;13.18;;;15.50;99.90;;;;;;5132762;27;20172;-53
2022/09/15 07:41:24;;;;;;;17.25;12.57;;;15.50;99.90;;;;;;5132639;27;20167;-54
2022/09/15 07:43:51;;;;;;;24.48;13.23;;;15.50;99.90;;;;;;5129413;27;20272;-53
2022/09/15 07:46:18;;;;;;;21.83;13.85;;;15.50;99.90;;;;;;5132735;27;20171;-53
2022/09/15 07:48:44;;;;;;;23.58;13.98;;;15.50;99.90;;;;;;5132460;27;20220;-53
2022/09/15 07:51:10;;;;;;;18.52;13.18;;;15.60;99.90;;;;;;5132468;27;20613;-53
2022/09/15 07:53:36;;;;;;;18.10;13.25;;;15.60;99.90;;;;;;5132796;27;20215;-53
2022/09/15 07:56:02;;;;;;;20.77;13.30;;;15.60;99.90;;;;;;5132547;27;20171;-53
2022/09/15 07:58:28;;;;;;;17.73;12.43;;;15.70;99.90;;;;;;5132431;27;20172;-53
2022/09/15 08:00:54;;;;;;;17.92;13.15;;;15.70;99.90;;;;;;5132512;27;20243;-53
2022/09/15 08:03:19;;;;;;;17.85;12.73;;;15.90;99.90;;;;;;5132224;27;20703;-52
2022/09/15 08:05:45;;;;;;;19.67;12.50;;;16.10;99.90;;;;;;5131049;27;20167;-53
2022/09/15 08:08:11;;;;;;;16.88;12.07;;;16.10;99.90;;;;;;5132276;27;20529;-52
2022/09/15 08:10:39;;;;;;;19.75;12.65;;;16.30;99.90;;;;;;5132509;27;20220;-53
2022/09/15 08:13:05;;;;;;;21.45;13.25;;;16.50;99.90;;;;;;5132744;27;20214;-53
2022/09/15 08:15:30;;;;;;;17.95;12.23;;;16.40;99.90;;;;;;5132378;27;20160;-52
2022/09/15 08:17:56;;;;;;;15.98;12.27;;;16.50;99.90;;;;;;5132022;27;20171;-53
2022/09/15 08:20:22;;;;;;;23.08;13.15;;;16.70;99.90;;;;;;5131985;27;20251;-53
2022/09/15 08:22:47;;;;;;;16.98;12.82;;;16.60;99.90;;;;;;5131880;27;20167;-53
2022/09/15 08:25:13;;;;;;;13.65;11.65;;;16.60;99.90;;;;;;5131875;27;20199;-53
2022/09/15 08:27:39;;;;;;;14.88;12.10;;;16.70;99.90;;;;;;5132228;27;20169;-53
2022/09/15 08:30:06;;;;;;;17.00;12.40;;;16.80;99.90;;;;;;5132275;27;20195;-53
2022/09/15 08:32:32;;;;;;;16.83;12.10;;;16.90;99.90;;;;;;5131755;27;20167;-53
2022/09/15 08:34:57;;;;;;;17.35;11.90;;;16.80;99.90;;;;;;5131534;27;20168;-53
2022/09/15 08:37:23;;;;;;;25.25;12.43;;;16.80;99.90;;;;;;5131882;27;20209;-53
2022/09/15 08:39:49;;;;;;;16.83;10.85;;;16.80;99.90;;;;;;5131806;27;20164;-53
2022/09/15 08:42:17;;;;;;;21.20;10.52;;;16.70;99.90;;;;;;5131723;27;20550;-53
2022/09/15 08:45:03;;;;;;;19.45;11.15;;;16.70;99.90;;;;;;5130384;27;20204;-53
2022/09/15 08:47:41;;;;;;;20.63;11.48;;;16.80;99.90;;;;;;5131057;27;20180;-52
2022/09/15 08:50:27;;;;;;;16.40;11.00;;;17.20;99.90;;;;;;5131992;27;20241;-52
2022/09/15 08:53:12;;;;;;;17.60;11.13;;;17.00;99.90;;;;;;5131431;27;20239;-52
2022/09/15 08:55:49;;;;;;;18.48;11.10;;;17.30;99.90;;;;;;5132084;27;20223;-52
2022/09/15 08:58:19;;;;;;;20.35;11.10;;;17.50;99.90;;;;;;5131643;27;20232;-53
2022/09/15 09:00:47;;;;;;;16.38;10.95;;;17.30;99.90;;;;;;5131443;28;20160;-52
2022/09/15 09:03:37;;;;;;;18.08;11.60;;;17.40;99.90;;;;;;5131409;27;20217;-53
2022/09/15 09:06:18;;;;;;;12.07;10.35;;;17.30;99.90;;;;;;5131410;28;20660;-52
2022/09/15 09:08:54;;;;;;;16.10;12.32;;;17.30;99.90;;;;;;5131409;27;20203;-52
2022/09/15 09:11:42;;;;;;;16.40;10.88;;;17.50;99.90;;;;;;5131434;27;20167;-53
2022/09/15 09:14:44;;;;;;;17.17;11.80;;;17.30;99.90;;;;;;5131699;27;20160;-53
2022/09/15 09:17:31;;;;;;;13.45;9.55;;;17.40;99.90;;;;;;5131276;27;20175;-53
2022/09/15 09:20:06;;;;;;;14.63;10.18;;;17.70;99.90;;;;;;5131301;27;20477;-53
2022/09/15 09:22:37;;;;;;;10.80;8.63;;;17.90;99.90;;;;;;5131533;27;20260;-53
2022/09/15 09:25:04;;;;;;;9.30;7.65;;;17.90;99.90;;;;;;5131441;27;20204;-52
2022/09/15 09:27:33;;;;;;;10.75;7.75;;;18.00;99.90;;;;;;5131275;27;20160;-52
2022/09/15 09:30:11;;;;;;;13.88;7.85;;;18.10;99.90;;;;;;5131447;27;20160;-52
2022/09/15 09:32:48;;;;;;;16.90;9.77;;;18.20;99.90;;;;;;5131637;27;20186;-52
2022/09/15 09:35:42;;;;;;;16.02;10.45;;;18.00;99.90;;;;;;5131173;27;20159;-52
2022/09/15 09:38:15;;;;;;;13.55;9.95;;;18.10;99.90;;;;;;5101414;27;20172;-53
2022/09/15 09:40:41;;;;;;;13.95;8.68;;;18.00;99.90;;;;;;5131237;27;20168;-52
2022/09/15 09:43:08;;;;;;;9.20;6.60;;;17.70;99.90;;;;;;5130275;28;20178;-52
2022/09/15 09:45:33;;;;;;;13.13;7.93;;;17.70;99.90;;;;;;5131409;27;20183;-52
2022/09/15 09:48:05;;;;;;;13.90;9.18;;;17.80;99.90;;;;;;5133976;27;20584;-53
2022/09/15 09:50:35;;;;;;;11.98;8.27;;;17.80;99.90;;;;;;5134926;27;20187;-52
2022/09/15 09:53:18;;;;;;;16.02;8.77;;;17.80;99.90;;;;;;5134662;27;20680;-52
2022/09/15 09:55:44;;;;;;;6.57;5.97;;;18.00;99.90;;;;;;5134934;27;20179;-53
2022/09/15 09:58:18;;;;;;;8.30;5.38;;;18.10;99.90;;;;;;5134694;27;20503;-53
2022/09/15 10:00:43;;;;;;;12.23;6.60;;;18.10;99.90;;;;;;5134906;27;20254;-53
2022/09/15 10:03:14;;;;;;;7.93;6.72;;;18.10;99.90;;;;;;5134861;27;20658;-52
2022/09/15 10:05:41;;;;;;;10.43;6.38;;;18.20;99.90;;;;;;5134531;27;20182;-53
2022/09/15 10:08:18;;;;;;;8.23;7.32;;;18.10;99.90;;;;;;5134813;27;20168;-53
2022/09/15 10:11:02;;;;;;;10.43;6.88;;;18.10;99.90;;;;;;5133402;27;20187;-53
2022/09/15 10:13:28;;;;;;;11.07;7.72;;;18.00;99.90;;;;;;5134512;27;20164;-53
2022/09/15 10:15:58;;;;;;;10.57;7.13;;;18.00;99.90;;;;;;5134400;27;20700;-53
2022/09/15 10:18:36;;;;;;;7.05;5.65;;;18.10;99.90;;;;;;5134389;27;20164;-53
2022/09/15 10:21:05;;;;;;;12.93;5.47;;;18.00;99.90;;;;;;5134283;27;20160;-53
2022/09/15 10:23:32;;;;;;;9.88;5.45;;;18.00;99.90;;;;;;5134272;27;20200;-53
2022/09/15 10:26:21;;;;;;;7.05;5.88;;;18.10;99.90;;;;;;5134413;27;20236;-52
2022/09/15 10:29:10;;;;;;;9.30;6.57;;;18.00;99.90;;;;;;5124526;27;20176;-52
2022/09/15 10:31:35;;;;;;;8.32;3.83;;;17.90;99.90;;;;;;5134395;27;20171;-54
2022/09/15 10:34:30;;;;;;;12.05;5.10;;;18.00;99.90;;;;;;5134004;27;20168;-53
2022/09/15 10:37:14;;;;;;;12.70;7.93;;;18.20;99.90;;;;;;5134277;27;20196;-53
2022/09/15 10:39:54;;;;;;;10.85;5.65;;;18.30;99.90;;;;;;5133819;27;20525;-53
2022/09/15 10:42:37;;;;;;;8.77;4.90;;;18.40;99.90;;;;;;5133756;27;20164;-53
2022/09/15 10:45:25;;;;;;;11.07;5.18;;;18.40;99.90;;;;;;5133723;27;20779;-53
2022/09/15 10:48:21;;;;;;;10.57;5.32;;;18.50;99.90;;;;;;5133936;27;20172;-53
2022/09/15 10:50:53;;;;;;;10.75;6.70;;;18.50;99.90;;;;;;5133602;27;20171;-54
2022/09/15 10:53:37;;;;;;;11.52;7.68;;;18.50;99.90;;;;;;5133452;27;20212;-53
2022/09/15 10:56:23;;;;;;;10.10;7.07;;;18.40;99.90;;;;;;5133621;27;20181;-53
2022/09/15 10:58:55;;;;;;;8.25;5.63;;;18.40;99.90;;;;;;5133218;27;20286;-53
2022/09/15 11:01:26;;;;;;;9.07;6.20;;;18.40;99.90;;;;;;5133838;27;20176;-54
2022/09/15 11:04:06;;;;;;;7.65;5.30;;;18.30;99.90;;;;;;5133238;27;20735;-54
2022/09/15 11:07:20;;;;;;;9.82;5.18;;;18.30;99.90;;;;;;5133416;27;20179;-54
2022/09/15 11:10:20;;;;;;;6.90;4.35;;;18.40;99.90;;;;;;5077571;27;20264;-53
2022/09/15 11:13:02;;;;;;;9.77;5.22;;;18.40;99.90;;;;;;5130041;27;20211;-53
2022/09/15 11:15:32;;;;;;;7.22;4.50;;;18.40;99.90;;;;;;5133238;27;20178;-53
2022/09/15 11:18:16;;;;;;;8.35;4.63;;;18.40;99.90;;;;;;5133137;27;20524;-54
2022/09/15 11:20:56;;;;;;;10.98;4.15;;;18.50;99.90;;;;;;5133148;27;20164;-54
2022/09/15 11:23:38;;;;;;;9.77;4.07;;;18.50;99.90;;;;;;5132892;27;20156;-53
2022/09/15 11:26:26;;;;;;;8.80;3.92;;;18.60;99.90;;;;;;5133305;27;20176;-54
2022/09/15 11:29:02;;;;;;;6.97;4.00;;;18.50;99.90;;;;;;5131765;27;20172;-53
2022/09/15 11:31:38;;;;;;;7.38;3.63;;;18.70;99.90;;;;;;5132848;27;20677;-53
2022/09/15 11:34:35;;;;;;;8.38;3.60;;;18.70;99.90;;;;;;5133260;27;20509;-53
2022/09/15 11:37:35;;;;;;;7.85;3.80;;;18.80;99.90;;;;;;5132159;27;20687;-53
2022/09/15 11:40:14;;;;;;;7.05;3.00;;;18.90;99.90;;;;;;5132520;27;20185;-54
2022/09/15 11:42:56;;;;;;;4.78;2.78;;;18.80;99.90;;;;;;5132510;27;20156;-51
2022/09/15 11:45:27;;;;;;;6.82;2.35;;;18.70;99.90;;;;;;5132356;27;20256;-51
2022/09/15 11:48:00;;;;;;;7.13;2.25;;;18.50;99.90;;;;;;5132486;27;20164;-51
2022/09/15 11:50:33;;;;;;;6.75;2.60;;;18.50;99.90;;;;;;5132422;27;20572;-52
2022/09/15 11:53:16;;;;;;;7.30;2.15;;;18.50;99.90;;;;;;5132187;27;20157;-52
2022/09/15 11:56:08;;;;;;;5.57;2.92;;;18.40;99.90;;;;;;5132373;27;20605;-52
2022/09/15 11:58:43;;;;;;;4.32;2.28;;;18.40;99.90;;;;;;5132747;27;20164;-52
2022/09/15 12:01:19;;;;;;;7.03;2.97;;;18.60;99.90;;;;;;5132308;27;20612;-52
2022/09/15 12:03:58;;;;;;;7.65;2.90;;;18.50;99.90;;;;;;5132158;27;20210;-52
2022/09/15 12:06:37;;;;;;;2.92;2.33;;;18.50;99.90;;;;;;5132305;27;20182;-52
2022/09/15 12:09:05;;;;;;;9.10;2.40;;;18.60;99.90;;;;;;5132130;27;20220;-52
2022/09/15 12:11:37;;;;;;;4.90;2.40;;;18.70;99.90;;;;;;5131955;27;20172;-52
2022/09/15 12:14:03;;;;;;;3.85;2.17;;;18.90;99.90;;;;;;5132124;27;20160;-52
2022/09/15 12:16:30;;;;;;;5.35;2.67;;;18.80;99.90;;;;;;5131979;27;20164;-52
2022/09/15 12:19:17;;;;;;;5.57;2.65;;;19.00;99.90;;;;;;5131948;27;20624;-52
2022/09/15 12:21:55;;;;;;;5.70;2.80;;;19.30;99.90;;;;;;5131953;27;20199;-53
2022/09/15 12:24:45;;;;;;;6.63;2.65;;;19.40;99.90;;;;;;5131877;27;20251;-53
2022/09/15 12:27:15;;;;;;;4.43;2.22;;;19.30;99.90;;;;;;5131812;27;20164;-53
2022/09/15 12:29:54;;;;;;;5.82;2.45;;;19.30;99.90;;;;;;5131774;27;20183;-53
2022/09/15 12:32:46;;;;;;;3.35;2.20;;;19.10;99.90;;;;;;5131902;27;20175;-53
2022/09/15 12:35:15;;;;;;;3.25;1.77;;;19.00;99.90;;;;;;5128740;27;20175;-53
2022/09/15 12:37:44;;;;;;;3.05;1.75;;;19.00;99.90;;;;;;5131805;27;20171;-53
2022/09/15 12:40:32;;;;;;;5.85;2.08;;;18.80;99.90;;;;;;5131692;27;20257;-52
2022/09/15 12:43:03;;;;;;;9.23;2.25;;;18.70;99.90;;;;;;5131489;27;20176;-53
2022/09/15 12:45:33;;;;;;;6.07;1.77;;;18.70;99.90;;;;;;5131871;27;20272;-53
2022/09/15 12:48:30;;;;;;;3.67;2.10;;;18.70;99.90;;;;;;5131880;27;20246;-53
2022/09/15 12:51:00;;;;;;;5.95;1.92;;;18.70;99.90;;;;;;5131849;27;20197;-53
2022/09/15 12:53:29;;;;;;;6.38;2.70;;;18.60;99.90;;;;;;5131437;27;20246;-53
2022/09/15 12:56:07;;;;;;;5.22;2.20;;;18.60;99.90;;;;;;5131582;27;20557;-53